Time;durP1;ratioP1;P1;durP2;ratioP2;P2;SDS_P1;SDS_P2;PMS_P1;PMS_P2;Temp;Humidity;BMP_temperature;BMP_pressure;BME280_temperature;BME280_humidity;BME280_pressure;Samples;Min_cycle;Max_cycle;Signal;HPM_P1;HPM_P2
2023/12/24 00:01:18;;;;;;;0.00;0.00;;;12.90;74.30;;;;;;5084742;28;20223;-39
2023/12/24 00:03:46;;;;;;;0.00;0.00;;;12.90;74.30;;;;;;5082623;28;20306;-39
2023/12/24 00:06:16;;;;;;;0.00;0.00;;;12.90;74.20;;;;;;5088317;28;20223;-39
2023/12/24 00:08:45;;;;;;;0.00;0.00;;;12.90;74.30;;;;;;5088460;28;20244;-39
2023/12/24 00:11:15;;;;;;;0.00;0.00;;;12.90;74.30;;;;;;5088526;28;20240;-38
2023/12/24 00:13:44;;;;;;;0.00;0.00;;;12.90;74.30;;;;;;5086278;28;20191;-39
2023/12/24 00:16:11;;;;;;;0.00;0.00;;;12.90;74.40;;;;;;5086056;28;20210;-39
2023/12/24 00:18:39;;;;;;;0.00;0.00;;;12.90;74.40;;;;;;5088410;28;20334;-39
2023/12/24 00:21:12;;;;;;;0.00;0.00;;;12.90;74.40;;;;;;5086884;28;20249;-39
2023/12/24 00:23:45;;;;;;;0.00;0.00;;;12.90;74.40;;;;;;5087199;28;20205;-39
2023/12/24 00:26:12;;;;;;;0.00;0.00;;;12.90;74.50;;;;;;5085232;28;20207;-39
2023/12/24 00:28:42;;;;;;;0.00;0.00;;;12.90;74.50;;;;;;5087116;28;20229;-38
2023/12/24 00:31:12;;;;;;;0.00;0.00;;;12.90;74.60;;;;;;5085713;28;20222;-38
2023/12/24 00:33:39;;;;;;;0.00;0.00;;;12.90;74.60;;;;;;5087158;28;20981;-39
2023/12/24 00:36:06;;;;;;;0.00;0.00;;;12.90;74.60;;;;;;5065012;28;20204;-39
2023/12/24 00:38:33;;;;;;;0.00;0.00;;;12.90;74.60;;;;;;5067075;28;20294;-39
2023/12/24 00:41:03;;;;;;;0.00;0.00;;;12.90;74.60;;;;;;5066456;28;20220;-39
2023/12/24 00:43:37;;;;;;;0.00;0.00;;;13.00;74.70;;;;;;5065336;28;20235;-39
2023/12/24 00:46:05;;;;;;;0.00;0.00;;;13.00;74.70;;;;;;5068948;28;20662;-39
2023/12/24 00:48:34;;;;;;;0.00;0.00;;;13.00;75.50;;;;;;5087000;28;20677;-39
2023/12/24 00:51:04;;;;;;;0.00;0.00;;;13.00;74.80;;;;;;5085510;28;20640;-39
2023/12/24 00:53:32;;;;;;;0.00;0.00;;;13.00;74.70;;;;;;5084589;28;20215;-39
2023/12/24 00:55:59;;;;;;;0.00;0.00;;;13.00;74.80;;;;;;5084971;28;20195;-39
2023/12/24 00:58:31;;;;;;;0.00;0.00;;;13.00;74.80;;;;;;5075914;28;20214;-39
2023/12/24 01:01:00;;;;;;;0.00;0.00;;;13.00;74.80;;;;;;5071209;28;20296;-39
2023/12/24 01:03:30;;;;;;;0.00;0.00;;;13.00;74.80;;;;;;5082444;28;20680;-39
2023/12/24 01:05:57;;;;;;;0.00;0.00;;;13.00;74.80;;;;;;5088312;28;20241;-40
2023/12/24 01:08:24;;;;;;;0.00;0.00;;;13.00;74.80;;;;;;5067791;28;20211;-39
2023/12/24 01:10:54;;;;;;;0.00;0.00;;;13.00;74.90;;;;;;5070096;28;20318;-39
2023/12/24 01:13:21;;;;;;;0.00;0.00;;;13.10;75.00;;;;;;5079487;28;20339;-39
2023/12/24 01:15:51;;;;;;;0.00;0.00;;;13.10;75.00;;;;;;5088630;28;20425;-39
2023/12/24 01:18:23;;;;;;;0.00;0.00;;;13.10;75.00;;;;;;5088995;28;20256;-39
2023/12/24 01:20:50;;;;;;;0.00;0.00;;;13.10;75.00;;;;;;5088254;28;20752;-39
2023/12/24 01:23:17;;;;;;;0.00;0.00;;;13.10;75.00;;;;;;5088351;28;20637;-39
2023/12/24 01:25:45;;;;;;;0.00;0.00;;;13.10;75.10;;;;;;5088834;28;20198;-39
2023/12/24 01:28:14;;;;;;;0.00;0.00;;;13.10;75.00;;;;;;5088547;28;20272;-39
2023/12/24 01:30:44;;;;;;;0.00;0.00;;;13.10;75.00;;;;;;5088513;28;20219;-39
2023/12/24 01:33:20;;;;;;;0.00;0.00;;;13.10;75.10;;;;;;5089326;28;20692;-39
2023/12/24 01:35:50;;;;;;;0.00;0.00;;;13.10;75.90;;;;;;5090567;28;20273;-39
2023/12/24 01:38:17;;;;;;;0.00;0.00;;;13.10;75.20;;;;;;5089562;28;20223;-39
2023/12/24 01:40:49;;;;;;;0.00;0.00;;;13.10;75.10;;;;;;5089238;28;20207;-39
2023/12/24 01:43:19;;;;;;;0.00;0.00;;;13.10;75.20;;;;;;5089551;28;20701;-39
2023/12/24 01:45:46;;;;;;;0.00;0.00;;;13.20;75.30;;;;;;5072070;28;20210;-39
2023/12/24 01:48:17;;;;;;;0.00;0.00;;;13.20;75.20;;;;;;5091284;28;20877;-39
2023/12/24 01:50:48;;;;;;;0.00;0.00;;;13.20;75.20;;;;;;5085607;28;20206;-39
2023/12/24 01:53:18;;;;;;;0.00;0.00;;;13.20;75.30;;;;;;5075042;28;20298;-39
2023/12/24 01:55:50;;;;;;;0.00;0.00;;;13.20;75.20;;;;;;5089333;28;20759;-39
2023/12/24 01:58:17;;;;;;;0.00;0.00;;;13.20;75.30;;;;;;5084631;28;20221;-39
2023/12/24 02:00:46;;;;;;;0.00;0.00;;;13.20;75.30;;;;;;5077968;28;20206;-39
2023/12/24 02:03:17;;;;;;;0.00;0.00;;;13.20;75.40;;;;;;5074961;28;20204;-40
2023/12/24 02:05:49;;;;;;;0.00;0.00;;;13.20;75.40;;;;;;5074039;28;20227;-39
2023/12/24 02:08:21;;;;;;;0.00;0.00;;;13.20;75.30;;;;;;5066860;28;20761;-39
2023/12/24 02:10:51;;;;;;;0.00;0.00;;;13.20;75.40;;;;;;5077799;28;20206;-40
2023/12/24 02:13:19;;;;;;;0.00;0.00;;;13.20;75.40;;;;;;5070792;28;20697;-40
2023/12/24 02:15:51;;;;;;;0.00;0.00;;;13.20;75.30;;;;;;5076498;28;20546;-39
2023/12/24 02:18:21;;;;;;;0.00;0.00;;;13.20;76.10;;;;;;5068619;28;20192;-39
2023/12/24 02:20:51;;;;;;;0.00;0.00;;;13.20;75.30;;;;;;5059265;28;20256;-40
2023/12/24 02:23:20;;;;;;;0.00;0.00;;;13.20;75.30;;;;;;5072662;28;20203;-40
2023/12/24 02:25:51;;;;;;;0.00;0.00;;;13.20;75.30;;;;;;5073600;28;20207;-40
2023/12/24 02:28:24;;;;;;;0.00;0.00;;;13.20;75.30;;;;;;5068920;28;20214;-40
2023/12/24 02:30:56;;;;;;;0.00;0.00;;;13.20;75.40;;;;;;5068149;28;20306;-41
2023/12/24 02:33:29;;;;;;;0.00;0.00;;;13.30;75.40;;;;;;5087238;28;20256;-39
2023/12/24 02:36:00;;;;;;;0.00;0.00;;;13.20;75.40;;;;;;5085959;28;20290;-40
2023/12/24 02:38:28;;;;;;;0.00;0.00;;;13.20;75.40;;;;;;5088796;28;20244;-39
2023/12/24 02:40:55;;;;;;;0.00;0.00;;;13.20;75.30;;;;;;5088303;28;20206;-40
2023/12/24 02:43:25;;;;;;;0.00;0.00;;;13.20;75.40;;;;;;5087473;28;20824;-39
2023/12/24 02:45:55;;;;;;;0.00;0.00;;;13.20;75.40;;;;;;5084229;28;20199;-39
2023/12/24 02:48:24;;;;;;;0.00;0.00;;;13.20;75.40;;;;;;5090174;28;20207;-40
2023/12/24 02:50:52;;;;;;;0.00;0.00;;;13.20;75.50;;;;;;5088661;28;20245;-40
2023/12/24 02:53:19;;;;;;;0.00;0.00;;;13.20;75.40;;;;;;5088235;28;20198;-40
2023/12/24 02:55:48;;;;;;;0.00;0.00;;;13.20;75.40;;;;;;5087448;28;20282;-39
2023/12/24 02:58:18;;;;;;;0.00;0.00;;;13.20;75.40;;;;;;5068795;28;20269;-39
2023/12/24 03:00:48;;;;;;;0.00;0.00;;;13.20;75.60;;;;;;5065547;28;20208;-41
2023/12/24 03:03:19;;;;;;;0.00;0.00;;;13.20;75.50;;;;;;5073146;28;20297;-39
2023/12/24 03:05:49;;;;;;;0.00;0.00;;;13.20;75.50;;;;;;5087077;28;20581;-41
2023/12/24 03:08:18;;;;;;;0.00;0.00;;;13.20;75.50;;;;;;5085575;28;20207;-41
2023/12/24 03:10:48;;;;;;;0.00;0.00;;;13.20;75.50;;;;;;5086222;28;20198;-39
2023/12/24 03:13:15;;;;;;;0.00;0.00;;;13.20;75.50;;;;;;5086164;28;20716;-39
2023/12/24 03:15:43;;;;;;;0.00;0.00;;;13.10;75.50;;;;;;5086533;28;20203;-40
2023/12/24 03:18:13;;;;;;;0.00;0.00;;;13.20;75.60;;;;;;5085445;28;20210;-41
2023/12/24 03:20:40;;;;;;;0.00;0.00;;;13.20;75.70;;;;;;5088436;28;20292;-40
2023/12/24 03:23:10;;;;;;;0.00;0.00;;;13.20;75.70;;;;;;5088447;28;20258;-40
2023/12/24 03:25:37;;;;;;;0.00;0.00;;;13.20;75.70;;;;;;5087261;28;20211;-40
2023/12/24 03:28:06;;;;;;;0.00;0.00;;;13.20;75.70;;;;;;5087851;28;20191;-40
2023/12/24 03:30:36;;;;;;;0.00;0.00;;;13.10;75.60;;;;;;5088134;28;20749;-41
2023/12/24 03:33:03;;;;;;;0.00;0.00;;;13.10;75.60;;;;;;5086536;28;20763;-40
2023/12/24 03:35:31;;;;;;;0.00;0.00;;;13.10;75.60;;;;;;5086534;28;20301;-40
2023/12/24 03:38:02;;;;;;;0.00;0.00;;;13.10;75.80;;;;;;5084491;28;20209;-40
2023/12/24 03:40:29;;;;;;;0.00;0.00;;;13.10;75.60;;;;;;5084467;28;20298;-41
2023/12/24 03:42:58;;;;;;;0.00;0.00;;;13.10;75.80;;;;;;5089379;28;20218;-41
2023/12/24 03:45:28;;;;;;;0.00;0.00;;;13.10;75.70;;;;;;5086814;28;20241;-41
2023/12/24 03:47:57;;;;;;;0.00;0.00;;;13.10;75.90;;;;;;5089196;28;20988;-41
2023/12/24 03:50:25;;;;;;;0.00;0.00;;;13.10;75.80;;;;;;5070702;28;20217;-40
2023/12/24 03:52:55;;;;;;;0.00;0.00;;;13.10;75.70;;;;;;5087482;28;20207;-41
2023/12/24 03:55:31;;;;;;;0.00;0.00;;;13.10;75.90;;;;;;5087179;28;20198;-40
2023/12/24 03:58:00;;;;;;;0.00;0.00;;;13.10;75.90;;;;;;5089459;28;20229;-40
2023/12/24 04:00:30;;;;;;;0.00;0.00;;;13.10;75.90;;;;;;5071032;28;20202;-40
2023/12/24 04:03:00;;;;;;;0.00;0.00;;;13.10;76.10;;;;;;5087308;28;20269;-40
2023/12/24 04:05:29;;;;;;;0.00;0.00;;;13.10;75.90;;;;;;5085555;28;20247;-40
2023/12/24 04:07:57;;;;;;;0.00;0.00;;;13.00;75.80;;;;;;5084218;28;20560;-40
2023/12/24 04:10:26;;;;;;;0.00;0.00;;;13.10;76.00;;;;;;5084496;28;20199;-40
2023/12/24 04:12:54;;;;;;;0.00;0.00;;;13.00;76.70;;;;;;5086161;28;20215;-40
2023/12/24 04:15:24;;;;;;;0.00;0.00;;;13.10;76.10;;;;;;5085604;28;20244;-40
2023/12/24 04:17:56;;;;;;;0.00;0.00;;;13.10;76.10;;;;;;5085298;28;20229;-40
2023/12/24 04:20:24;;;;;;;0.00;0.00;;;13.10;76.20;;;;;;5086200;28;20223;-39
2023/12/24 04:22:53;;;;;;;0.00;0.00;;;13.10;76.00;;;;;;5086142;28;20265;-40
2023/12/24 04:25:23;;;;;;;0.00;0.00;;;13.10;76.00;;;;;;5086160;28;20201;-38
2023/12/24 04:27:55;;;;;;;0.00;0.00;;;13.10;76.00;;;;;;5084468;28;20203;-38
2023/12/24 04:30:26;;;;;;;0.00;0.00;;;13.10;76.10;;;;;;5084538;28;20202;-38
2023/12/24 04:32:56;;;;;;;0.00;0.00;;;13.10;76.20;;;;;;5082872;28;20218;-37
2023/12/24 04:35:29;;;;;;;0.00;0.00;;;13.10;76.20;;;;;;5085693;28;20210;-38
2023/12/24 04:37:59;;;;;;;0.00;0.00;;;13.10;76.10;;;;;;5086619;28;20252;-38
2023/12/24 04:40:26;;;;;;;0.00;0.00;;;13.00;76.10;;;;;;5088675;28;20245;-37
2023/12/24 04:42:53;;;;;;;0.00;0.00;;;13.00;76.10;;;;;;5088714;28;20227;-37
2023/12/24 04:45:23;;;;;;;0.00;0.00;;;13.00;76.20;;;;;;5086922;28;20225;-38
2023/12/24 04:47:58;;;;;;;0.00;0.00;;;13.10;76.20;;;;;;5086035;28;20211;-37
2023/12/24 04:50:26;;;;;;;0.00;0.00;;;13.00;76.20;;;;;;5087607;28;20872;-38
2023/12/24 04:52:58;;;;;;;0.00;0.00;;;13.00;76.10;;;;;;5069025;28;20999;-37
2023/12/24 04:55:25;;;;;;;0.00;0.00;;;13.00;76.20;;;;;;5084249;28;20199;-36
2023/12/24 04:57:54;;;;;;;0.00;0.00;;;13.00;76.30;;;;;;5085229;28;20215;-36
2023/12/24 05:00:24;;;;;;;0.00;0.00;;;13.00;76.30;;;;;;5084773;28;20202;-36
2023/12/24 05:02:53;;;;;;;0.00;0.00;;;13.00;76.40;;;;;;5083336;28;20795;-37
2023/12/24 05:05:24;;;;;;;0.00;0.00;;;13.00;76.30;;;;;;5086029;28;20254;-37
2023/12/24 05:07:51;;;;;;;0.00;0.00;;;13.00;76.40;;;;;;5085828;28;20195;-37
2023/12/24 05:10:19;;;;;;;0.00;0.00;;;13.00;77.10;;;;;;5085860;28;20199;-37
2023/12/24 05:12:46;;;;;;;0.00;0.00;;;13.00;76.80;;;;;;5084929;28;20256;-38
2023/12/24 05:15:16;;;;;;;0.00;0.00;;;13.00;76.40;;;;;;5085580;28;20211;-37
2023/12/24 05:17:46;;;;;;;0.00;0.00;;;13.00;77.20;;;;;;5085248;28;20294;-37
2023/12/24 05:20:16;;;;;;;0.00;0.00;;;13.00;76.60;;;;;;5086463;28;20551;-37
2023/12/24 05:22:48;;;;;;;0.00;0.00;;;13.00;76.60;;;;;;5085555;28;20227;-37
2023/12/24 05:25:20;;;;;;;0.00;0.00;;;13.00;76.50;;;;;;5083772;28;20733;-36
2023/12/24 05:27:47;;;;;;;0.00;0.00;;;13.00;76.70;;;;;;5080883;28;20199;-37
2023/12/24 05:30:17;;;;;;;0.00;0.00;;;13.00;76.60;;;;;;5087109;28;20199;-37
2023/12/24 05:32:48;;;;;;;0.00;0.00;;;13.00;76.70;;;;;;5085867;28;20230;-37
2023/12/24 05:35:16;;;;;;;0.00;0.00;;;13.00;76.70;;;;;;5085522;28;20218;-37
2023/12/24 05:37:43;;;;;;;0.00;0.00;;;13.00;76.60;;;;;;5082511;28;21550;-38
2023/12/24 05:40:11;;;;;;;0.00;0.00;;;13.00;76.90;;;;;;5082186;28;20673;-38
2023/12/24 05:42:38;;;;;;;0.00;0.00;;;13.00;76.80;;;;;;5054302;28;20227;-37
2023/12/24 05:45:10;;;;;;;0.00;0.00;;;13.00;76.70;;;;;;5088420;28;20207;-38
2023/12/24 05:47:38;;;;;;;0.00;0.00;;;13.00;76.70;;;;;;5087902;28;20199;-37
2023/12/24 05:50:09;;;;;;;0.00;0.00;;;13.00;76.70;;;;;;5088619;28;20752;-37
2023/12/24 05:52:41;;;;;;;0.00;0.00;;;13.00;76.60;;;;;;5089767;28;20222;-38
2023/12/24 05:55:10;;;;;;;0.00;0.00;;;13.00;76.90;;;;;;5088244;28;20259;-37
2023/12/24 05:57:37;;;;;;;0.00;0.00;;;13.00;77.00;;;;;;5071314;28;20794;-37
2023/12/24 06:00:09;;;;;;;0.00;0.00;;;13.00;76.70;;;;;;5065555;28;20206;-36
2023/12/24 06:02:38;;;;;;;0.00;0.00;;;13.00;77.50;;;;;;5063227;28;20227;-36
2023/12/24 06:05:06;;;;;;;0.00;0.00;;;13.00;76.80;;;;;;5081949;28;20716;-36
2023/12/24 06:07:33;;;;;;;0.00;0.00;;;13.00;77.20;;;;;;5065532;28;20318;-35
2023/12/24 06:10:00;;;;;;;0.00;0.00;;;13.00;77.70;;;;;;5081241;28;20210;-36
2023/12/24 06:12:30;;;;;;;0.00;0.00;;;13.00;77.10;;;;;;5084021;28;20199;-38
2023/12/24 06:15:01;;;;;;;0.00;0.00;;;13.00;77.00;;;;;;5085757;28;20215;-37
2023/12/24 06:17:28;;;;;;;0.00;0.00;;;13.00;76.90;;;;;;5081348;28;20203;-38
2023/12/24 06:19:58;;;;;;;0.00;0.00;;;13.00;77.10;;;;;;5081476;28;20290;-37
2023/12/24 06:22:27;;;;;;;0.00;0.00;;;13.00;77.00;;;;;;5079486;28;20774;-37
2023/12/24 06:25:02;;;;;;;0.00;0.00;;;13.00;77.00;;;;;;5082578;28;20207;-36
2023/12/24 06:27:29;;;;;;;0.00;0.00;;;13.00;77.10;;;;;;5080414;28;20688;-37
2023/12/24 06:30:06;;;;;;;0.00;0.00;;;13.00;77.10;;;;;;5085654;28;20652;-37
2023/12/24 06:32:33;;;;;;;0.00;0.00;;;13.00;77.20;;;;;;5087521;28;20210;-37
2023/12/24 06:35:03;;;;;;;0.00;0.00;;;13.00;77.10;;;;;;5078240;28;20203;-37
2023/12/24 06:37:31;;;;;;;0.00;0.00;;;13.00;77.10;;;;;;5077810;28;20673;-37
2023/12/24 06:40:00;;;;;;;0.00;0.00;;;13.10;77.10;;;;;;5071284;28;20590;-37
2023/12/24 06:42:30;;;;;;;0.00;0.00;;;13.10;77.10;;;;;;5054981;28;22338;-38
2023/12/24 06:44:57;;;;;;;0.00;0.00;;;13.10;77.20;;;;;;5081598;28;20716;-37
2023/12/24 06:47:27;;;;;;;0.00;0.00;;;13.10;77.00;;;;;;5083767;28;20660;-36
2023/12/24 06:49:54;;;;;;;0.00;0.00;;;13.10;77.10;;;;;;5080995;28;20771;-36
2023/12/24 06:52:24;;;;;;;0.00;0.00;;;13.10;77.10;;;;;;5085221;28;20214;-36
2023/12/24 06:54:53;;;;;;;0.00;0.00;;;13.10;77.50;;;;;;5083702;28;20199;-37
2023/12/24 06:57:23;;;;;;;0.00;0.00;;;13.10;77.10;;;;;;5062503;28;20220;-35
2023/12/24 06:59:53;;;;;;;0.00;0.00;;;13.10;77.10;;;;;;5063761;28;20218;-36
2023/12/24 07:02:27;;;;;;;0.00;0.00;;;13.10;77.20;;;;;;5071015;28;20215;-36
2023/12/24 07:04:56;;;;;;;0.00;0.00;;;13.10;77.10;;;;;;5069409;28;20231;-37
2023/12/24 07:07:26;;;;;;;0.00;0.00;;;13.10;77.20;;;;;;5076757;28;20197;-37
2023/12/24 07:09:54;;;;;;;0.00;0.00;;;13.10;77.50;;;;;;5069639;28;20665;-37
2023/12/24 07:12:21;;;;;;;0.00;0.00;;;13.10;77.20;;;;;;5072440;28;20195;-38
2023/12/24 07:14:48;;;;;;;0.00;0.00;;;13.10;77.30;;;;;;5052856;28;20207;-37
2023/12/24 07:17:20;;;;;;;0.00;0.00;;;13.10;77.60;;;;;;5071775;28;20195;-37
2023/12/24 07:19:47;;;;;;;0.00;0.00;;;13.10;77.30;;;;;;5072605;28;20686;-38
2023/12/24 07:22:16;;;;;;;0.00;0.00;;;13.10;77.40;;;;;;5074774;28;20199;-37
2023/12/24 07:24:46;;;;;;;0.00;0.00;;;13.10;77.40;;;;;;5077084;28;20210;-37
2023/12/24 07:27:14;;;;;;;0.00;0.00;;;13.10;77.50;;;;;;5058681;28;20199;-37
2023/12/24 07:29:43;;;;;;;0.00;0.00;;;13.10;77.40;;;;;;5073372;28;20298;-38
2023/12/24 07:32:10;;;;;;;0.00;0.00;;;13.10;77.70;;;;;;5060492;28;20198;-37
2023/12/24 07:34:38;;;;;;;0.00;0.00;;;13.10;77.60;;;;;;5075415;28;20622;-37
2023/12/24 07:37:05;;;;;;;0.00;0.00;;;13.10;77.60;;;;;;5072458;28;20207;-37
2023/12/24 07:39:33;;;;;;;0.00;0.00;;;13.10;77.50;;;;;;5081609;28;20218;-37
2023/12/24 07:42:00;;;;;;;0.00;0.00;;;13.20;77.60;;;;;;5072001;28;20199;-40
2023/12/24 07:44:32;;;;;;;0.00;0.00;;;13.20;77.50;;;;;;5071158;28;20231;-38
2023/12/24 07:46:59;;;;;;;0.00;0.00;;;13.10;77.40;;;;;;5066527;28;20215;-37
2023/12/24 07:49:27;;;;;;;0.00;0.00;;;13.20;77.50;;;;;;5069173;28;20419;-38
2023/12/24 07:51:54;;;;;;;0.00;0.00;;;13.10;77.60;;;;;;5084501;28;20210;-37
2023/12/24 07:54:21;;;;;;;0.00;0.00;;;13.20;77.40;;;;;;5088780;28;20238;-38
2023/12/24 07:56:50;;;;;;;0.00;0.00;;;13.10;77.50;;;;;;5090252;28;20211;-37
2023/12/24 07:59:18;;;;;;;0.00;0.00;;;13.20;77.70;;;;;;5086887;28;20573;-38
2023/12/24 08:01:45;;;;;;;0.00;0.00;;;13.10;77.50;;;;;;5044066;28;20199;-37
2023/12/24 08:04:14;;;;;;;0.00;0.00;;;13.20;77.70;;;;;;5082135;28;20578;-38
2023/12/24 08:06:44;;;;;;;0.00;0.00;;;13.20;77.70;;;;;;5065346;28;20231;-37
2023/12/24 08:09:11;;;;;;;0.00;0.00;;;13.20;77.80;;;;;;5081442;28;20290;-38
2023/12/24 08:11:38;;;;;;;0.00;0.00;;;13.20;77.70;;;;;;5079293;28;20206;-38
2023/12/24 08:14:08;;;;;;;0.00;0.00;;;13.20;77.60;;;;;;5084130;28;20672;-37
2023/12/24 08:16:35;;;;;;;0.00;0.00;;;13.20;77.70;;;;;;5081175;28;20727;-37
2023/12/24 08:19:05;;;;;;;0.00;0.00;;;13.20;77.70;;;;;;5082282;28;20642;-37
2023/12/24 08:21:33;;;;;;;0.00;0.00;;;13.20;77.80;;;;;;5083508;28;20211;-38
2023/12/24 08:24:02;;;;;;;0.00;0.00;;;13.20;77.70;;;;;;5087590;28;20696;-38
2023/12/24 08:26:30;;;;;;;0.00;0.00;;;13.30;78.00;;;;;;5085052;28;20363;-37
2023/12/24 08:28:59;;;;;;;0.00;0.00;;;13.30;77.90;;;;;;5083203;28;20210;-37
2023/12/24 08:31:26;;;;;;;0.00;0.00;;;13.30;77.80;;;;;;5082884;28;20213;-38
2023/12/24 08:34:00;;;;;;;0.00;0.00;;;13.20;78.00;;;;;;5080317;28;21854;-38
2023/12/24 08:36:33;;;;;;;0.00;0.00;;;13.30;77.90;;;;;;5086731;28;20542;-37
2023/12/24 08:39:00;;;;;;;0.00;0.00;;;13.30;78.10;;;;;;5085614;28;20624;-38
2023/12/24 08:41:28;;;;;;;0.00;0.00;;;13.30;77.90;;;;;;5083678;28;20209;-38
2023/12/24 08:43:55;;;;;;;0.00;0.00;;;13.30;78.00;;;;;;5083176;28;20213;-37
2023/12/24 08:46:22;;;;;;;0.00;0.00;;;13.30;77.90;;;;;;5078442;28;20207;-37
2023/12/24 08:48:49;;;;;;;0.00;0.00;;;13.30;78.10;;;;;;5085300;28;20210;-38
2023/12/24 08:51:21;;;;;;;0.00;0.00;;;13.30;78.20;;;;;;5088361;28;20198;-37
2023/12/24 08:53:53;;;;;;;0.00;0.00;;;13.30;78.20;;;;;;5086953;28;20211;-38
2023/12/24 08:56:20;;;;;;;0.00;0.00;;;13.30;78.20;;;;;;5069942;28;20211;-38
2023/12/24 08:58:52;;;;;;;0.00;0.00;;;13.30;78.10;;;;;;5084470;28;20317;-37
2023/12/24 09:01:22;;;;;;;0.00;0.00;;;13.40;78.40;;;;;;5082814;28;20199;-37
2023/12/24 09:03:52;;;;;;;0.00;0.00;;;13.40;78.20;;;;;;5076200;28;20983;-37
2023/12/24 09:06:19;;;;;;;0.00;0.00;;;13.40;78.40;;;;;;5086109;28;20582;-37
2023/12/24 09:08:46;;;;;;;0.00;0.00;;;13.40;78.40;;;;;;5069405;28;20199;-38
2023/12/24 09:11:14;;;;;;;0.00;0.00;;;13.40;78.40;;;;;;5084305;28;20195;-38
2023/12/24 09:13:43;;;;;;;0.00;0.00;;;13.40;78.40;;;;;;5080855;28;20337;-37
2023/12/24 09:16:10;;;;;;;0.00;0.00;;;13.40;78.40;;;;;;5072005;28;20231;-37
2023/12/24 09:18:37;;;;;;;0.00;0.00;;;13.40;78.60;;;;;;5087342;28;21190;-37
2023/12/24 09:21:05;;;;;;;0.00;0.00;;;13.40;78.60;;;;;;5087020;28;20294;-37
2023/12/24 09:23:32;;;;;;;0.00;0.00;;;13.50;78.70;;;;;;5089975;28;20310;-38
2023/12/24 09:26:02;;;;;;;0.00;0.00;;;13.40;78.40;;;;;;5083457;28;20751;-36
2023/12/24 09:28:32;;;;;;;0.00;0.00;;;13.50;78.70;;;;;;5084840;28;20230;-37
2023/12/24 09:30:59;;;;;;;0.00;0.00;;;13.50;78.40;;;;;;5085133;28;20720;-37
2023/12/24 09:33:32;;;;;;;0.00;0.00;;;13.50;78.50;;;;;;5086964;28;20776;-38
2023/12/24 09:35:59;;;;;;;0.00;0.00;;;13.50;78.60;;;;;;5086718;28;20298;-38
2023/12/24 09:38:26;;;;;;;0.00;0.00;;;13.50;78.50;;;;;;5089084;28;20202;-37
2023/12/24 09:40:54;;;;;;;0.00;0.00;;;13.50;78.60;;;;;;5091504;28;20211;-38
2023/12/24 09:43:30;;;;;;;0.00;0.00;;;13.50;78.70;;;;;;5086349;28;20719;-36
2023/12/24 09:45:57;;;;;;;0.00;0.00;;;13.50;78.90;;;;;;5085034;28;20965;-37
2023/12/24 09:48:25;;;;;;;0.00;0.00;;;13.60;78.90;;;;;;5081448;28;20202;-37
2023/12/24 09:50:52;;;;;;;0.00;0.00;;;13.60;78.70;;;;;;5083891;28;20202;-38
2023/12/24 09:53:25;;;;;;;0.00;0.00;;;13.60;78.80;;;;;;5089069;28;20195;-38
2023/12/24 09:55:52;;;;;;;0.00;0.00;;;13.60;78.70;;;;;;5089570;28;20206;-38
2023/12/24 09:58:19;;;;;;;0.00;0.00;;;13.60;78.70;;;;;;5089238;28;20226;-38
2023/12/24 10:00:49;;;;;;;0.00;0.00;;;13.60;78.50;;;;;;5069199;28;20199;-37
2023/12/24 10:03:18;;;;;;;0.00;0.00;;;13.60;78.50;;;;;;5082264;28;20703;-37
2023/12/24 10:06:04;;;;;;;0.00;0.00;;;13.60;78.70;;;;;;5082646;28;20227;-38
2023/12/24 10:08:35;;;;;;;0.00;0.00;;;13.60;78.80;;;;;;5071277;28;20194;-38
2023/12/24 10:11:33;;;;;;;0.00;0.00;;;13.60;78.70;;;;;;5089280;28;20207;-38
2023/12/24 10:14:05;;;;;;;0.00;0.00;;;13.70;78.80;;;;;;5082158;28;20256;-38
2023/12/24 10:16:46;;;;;;;0.00;0.00;;;13.60;79.00;;;;;;5087682;28;20207;-38
2023/12/24 10:19:23;;;;;;;0.00;0.00;;;13.60;78.90;;;;;;5072885;28;20199;-38
2023/12/24 10:22:06;;;;;;;0.00;0.00;;;13.70;78.90;;;;;;5084558;28;20202;-38
2023/12/24 10:24:41;;;;;;;0.00;0.00;;;13.70;78.90;;;;;;5087297;28;20219;-38
2023/12/24 10:27:11;;;;;;;0.00;0.00;;;13.60;79.00;;;;;;5090226;28;20221;-38
2023/12/24 10:29:44;;;;;;;0.00;0.00;;;13.60;79.20;;;;;;5082833;28;20226;-37
2023/12/24 10:32:11;;;;;;;0.00;0.00;;;13.70;79.30;;;;;;5084178;28;20253;-38
2023/12/24 10:34:39;;;;;;;0.00;0.00;;;13.70;80.00;;;;;;5082323;28;20200;-38
2023/12/24 10:37:21;;;;;;;0.00;0.00;;;13.70;78.90;;;;;;5068451;28;20237;-38
2023/12/24 10:39:50;;;;;;;0.00;0.00;;;13.70;79.10;;;;;;5086280;28;20309;-38
2023/12/24 10:42:19;;;;;;;0.00;0.00;;;13.70;79.10;;;;;;5087086;28;20318;-38
2023/12/24 10:44:51;;;;;;;0.00;0.00;;;13.70;79.20;;;;;;5088256;28;20656;-38
2023/12/24 10:47:21;;;;;;;0.00;0.00;;;13.70;79.20;;;;;;5088742;28;20195;-38
2023/12/24 10:49:48;;;;;;;0.00;0.00;;;13.70;79.00;;;;;;5088801;28;20199;-39
2023/12/24 10:52:15;;;;;;;0.00;0.00;;;13.70;79.10;;;;;;5084184;28;20199;-39
2023/12/24 10:54:47;;;;;;;0.00;0.00;;;13.70;79.20;;;;;;5086978;28;20230;-37
2023/12/24 10:57:42;;;;;;;0.00;0.00;;;13.70;78.90;;;;;;5088466;28;20563;-38
2023/12/24 11:00:16;;;;;;;0.00;0.00;;;13.70;79.10;;;;;;5078556;28;20629;-38
2023/12/24 11:02:49;;;;;;;0.00;0.00;;;13.70;79.10;;;;;;5081645;28;20225;-38
2023/12/24 11:05:43;;;;;;;0.00;0.00;;;13.70;79.10;;;;;;5088707;28;20292;-38
2023/12/24 11:08:22;;;;;;;0.00;0.00;;;13.70;79.10;;;;;;5087175;28;20226;-38
2023/12/24 11:11:06;;;;;;;0.00;0.00;;;13.70;79.30;;;;;;5079686;28;20219;-38
2023/12/24 11:13:36;;;;;;;0.00;0.00;;;13.70;79.20;;;;;;5079991;28;20199;-38
2023/12/24 11:16:09;;;;;;;0.00;0.00;;;13.70;79.20;;;;;;5085373;28;20550;-38
2023/12/24 11:18:47;;;;;;;0.00;0.00;;;13.70;79.30;;;;;;5088028;28;20207;-38
2023/12/24 11:21:19;;;;;;;0.00;0.00;;;13.70;79.20;;;;;;5084053;28;20236;-37
2023/12/24 11:24:10;;;;;;;0.00;0.00;;;13.70;79.00;;;;;;5083928;28;20215;-38
2023/12/24 11:26:38;;;;;;;0.00;0.00;;;13.70;79.30;;;;;;5078024;28;20663;-38
2023/12/24 11:29:47;;;;;;;0.00;0.00;;;13.70;79.20;;;;;;5088970;28;20615;-37
2023/12/24 11:32:25;;;;;;;0.00;0.00;;;13.70;79.20;;;;;;5066642;28;20309;-39
2023/12/24 11:35:02;;;;;;;0.00;0.00;;;13.70;79.30;;;;;;5086822;28;20675;-38
2023/12/24 11:37:34;;;;;;;0.00;0.00;;;13.70;79.30;;;;;;5077370;28;20259;-38
2023/12/24 11:40:15;;;;;;;0.00;0.00;;;13.70;79.40;;;;;;5087738;28;20211;-39
2023/12/24 11:42:48;;;;;;;0.00;0.00;;;13.70;79.40;;;;;;5082647;28;20206;-39
2023/12/24 11:45:21;;;;;;;0.00;0.00;;;13.70;79.20;;;;;;5083252;28;20229;-39
2023/12/24 11:47:50;;;;;;;0.00;0.00;;;13.70;79.10;;;;;;5082158;28;20218;-39
2023/12/24 11:50:21;;;;;;;0.00;0.00;;;13.70;79.40;;;;;;5086405;28;20269;-39
2023/12/24 11:52:54;;;;;;;0.00;0.00;;;13.70;79.40;;;;;;5084405;28;20225;-39
2023/12/24 11:55:21;;;;;;;0.00;0.00;;;13.70;79.40;;;;;;5084520;28;20555;-39
2023/12/24 11:57:52;;;;;;;0.00;0.00;;;13.70;79.40;;;;;;5081386;28;20369;-39
2023/12/24 12:00:29;;;;;;;0.00;0.00;;;13.70;79.60;;;;;;5082512;28;20203;-39
2023/12/24 12:02:58;;;;;;;0.00;0.00;;;13.80;79.60;;;;;;5084416;28;20217;-39
2023/12/24 12:05:30;;;;;;;0.00;0.00;;;13.80;79.50;;;;;;5086768;28;20233;-39
2023/12/24 12:08:01;;;;;;;0.00;0.00;;;13.80;79.60;;;;;;5084754;28;20205;-39
2023/12/24 12:10:32;;;;;;;0.00;0.00;;;13.80;79.40;;;;;;5083022;28;20218;-39
2023/12/24 12:13:02;;;;;;;0.00;0.00;;;13.80;79.60;;;;;;5077706;28;22693;-38
2023/12/24 12:15:29;;;;;;;0.00;0.00;;;13.80;79.50;;;;;;5078369;28;20203;-40
2023/12/24 12:17:56;;;;;;;0.00;0.00;;;13.80;79.60;;;;;;5075644;28;20265;-39
2023/12/24 12:20:25;;;;;;;0.00;0.00;;;13.80;79.40;;;;;;5084111;28;20298;-38
2023/12/24 12:22:55;;;;;;;0.00;0.00;;;13.80;79.50;;;;;;5082427;28;20211;-39
2023/12/24 12:25:25;;;;;;;0.00;0.00;;;13.80;79.60;;;;;;5085128;28;20223;-39
2023/12/24 12:27:54;;;;;;;0.00;0.00;;;13.80;79.70;;;;;;5084106;28;20228;-39
2023/12/24 12:30:23;;;;;;;0.00;0.00;;;13.80;79.70;;;;;;5083674;28;20207;-39
2023/12/24 12:32:51;;;;;;;0.00;0.00;;;13.90;79.80;;;;;;5085587;28;20310;-40
2023/12/24 12:35:21;;;;;;;0.00;0.00;;;13.90;79.70;;;;;;5086288;28;20232;-39
2023/12/24 12:37:48;;;;;;;0.00;0.00;;;13.90;79.80;;;;;;5080173;28;20211;-39
2023/12/24 12:40:15;;;;;;;0.00;0.00;;;13.80;79.70;;;;;;5082270;28;20577;-39
2023/12/24 12:42:43;;;;;;;0.00;0.00;;;13.90;79.90;;;;;;5084530;28;20202;-40
2023/12/24 12:45:13;;;;;;;0.00;0.00;;;13.90;80.00;;;;;;5084509;28;20219;-39
2023/12/24 12:47:42;;;;;;;0.00;0.00;;;13.90;79.90;;;;;;5084761;28;20203;-39
2023/12/24 12:50:10;;;;;;;0.00;0.00;;;13.90;79.90;;;;;;5083463;28;20201;-39
2023/12/24 12:52:47;;;;;;;0.00;0.00;;;13.90;79.90;;;;;;5088678;28;21022;-39
2023/12/24 12:55:19;;;;;;;0.00;0.00;;;14.00;80.20;;;;;;5092050;28;20198;-39
2023/12/24 12:57:49;;;;;;;0.00;0.00;;;14.00;80.00;;;;;;5089549;28;20680;-39
2023/12/24 13:00:24;;;;;;;0.00;0.00;;;14.00;80.00;;;;;;5090071;28;20199;-39
2023/12/24 13:02:51;;;;;;;0.00;0.00;;;14.00;80.20;;;;;;5088261;28;21000;-39